Aviation Digital Data Service (ADDS)

Output produced by METARs form (1926 UTC 18 April 2019)
found at http://www.aviationweather.gov/metar/data/
 
METAR text: LESA 181900Z AUTO 06007KT 7000 NSC 10/06 Q1012
Conditions at: LESA (SALAMANCA (CIV/M, ES) observed 1900 UTC 18 April 2019
Temperature: 10.0°C (50°F)
Dewpoint: 6.0°C (43°F) [RH = 76%]
Pressure (altimeter): 29.88 inches Hg (1012.0 mb)
Winds: from the ENE (60 degrees) at 8 MPH (7 knots; 3.6 m/s)
Visibility: 4 miles ( 7 km)
Ceiling: at least 12,000 feet AGL
Clouds: sky clear below 12,000 feet AGL
Weather: no significant weather observed at this time

METAR text: LESA 181830Z AUTO 06007KT 7000 NSC 11/05 Q1012
Conditions at: LESA (SALAMANCA (CIV/M, ES) observed 1830 UTC 18 April 2019
Temperature: 11.0°C (52°F)
Dewpoint: 5.0°C (41°F) [RH = 66%]
Pressure (altimeter): 29.88 inches Hg (1012.0 mb)
Winds: from the ENE (60 degrees) at 8 MPH (7 knots; 3.6 m/s)
Visibility: 4 miles ( 7 km)
Ceiling: at least 12,000 feet AGL
Clouds: sky clear below 12,000 feet AGL
Weather: no significant weather observed at this time

METAR text: LESA 181800Z 06008KT 9999 FEW028CB 11/04 Q1012
Conditions at: LESA (SALAMANCA (CIV/M, ES) observed 1800 UTC 18 April 2019
Temperature: 11.0°C (52°F)
Dewpoint: 4.0°C (39°F) [RH = 62%]
Pressure (altimeter): 29.88 inches Hg (1012.0 mb)
Winds: from the ENE (60 degrees) at 9 MPH (8 knots; 4.1 m/s)
Visibility: 6 or more miles (10+ km)
Ceiling: at least 12,000 feet AGL
Clouds: few clouds at 2800 feet AGL
Weather: no significant weather observed at this time

METAR text: LESA 181730Z 07008KT 040V100 9999 FEW028CB 12/05 Q1012
Conditions at: LESA (SALAMANCA (CIV/M, ES) observed 1730 UTC 18 April 2019
Temperature: 12.0°C (54°F)
Dewpoint: 5.0°C (41°F) [RH = 62%]
Pressure (altimeter): 29.88 inches Hg (1012.0 mb)
Winds: from the ENE (70 degrees) at 9 MPH (8 knots; 4.1 m/s)
Visibility: 6 or more miles (10+ km)
Ceiling: at least 12,000 feet AGL
Clouds: few clouds at 2800 feet AGL
Weather: no significant weather observed at this time

METAR text: LESA 181700Z 07008KT 9999 FEW028CB 12/05 Q1012
Conditions at: LESA (SALAMANCA (CIV/M, ES) observed 1700 UTC 18 April 2019
Temperature: 12.0°C (54°F)
Dewpoint: 5.0°C (41°F) [RH = 62%]
Pressure (altimeter): 29.88 inches Hg (1012.0 mb)
Winds: from the ENE (70 degrees) at 9 MPH (8 knots; 4.1 m/s)
Visibility: 6 or more miles (10+ km)
Ceiling: at least 12,000 feet AGL
Clouds: few clouds at 2800 feet AGL
Weather: no significant weather observed at this time

METAR text: LESA 181630Z 08008KT 040V120 9999 FEW028CB SCT038 12/05 Q1012
Conditions at: LESA (SALAMANCA (CIV/M, ES) observed 1630 UTC 18 April 2019
Temperature: 12.0°C (54°F)
Dewpoint: 5.0°C (41°F) [RH = 62%]
Pressure (altimeter): 29.88 inches Hg (1012.0 mb)
Winds: from the E (80 degrees) at 9 MPH (8 knots; 4.1 m/s)
Visibility: 6 or more miles (10+ km)
Ceiling: at least 12,000 feet AGL
Clouds: few clouds at 2800 feet AGL
scattered clouds at 3800 feet AGL
Weather: no significant weather observed at this time

METAR text: LESA 181600Z 07012KT 9999 FEW026CB SCT036 12/05 Q1012
Conditions at: LESA (SALAMANCA (CIV/M, ES) observed 1600 UTC 18 April 2019
Temperature: 12.0°C (54°F)
Dewpoint: 5.0°C (41°F) [RH = 62%]
Pressure (altimeter): 29.88 inches Hg (1012.0 mb)
Winds: from the ENE (70 degrees) at 14 MPH (12 knots; 6.2 m/s)
Visibility: 6 or more miles (10+ km)
Ceiling: at least 12,000 feet AGL
Clouds: few clouds at 2600 feet AGL
scattered clouds at 3600 feet AGL
Weather: no significant weather observed at this time

METAR text: LESA 181538Z 07013KT 040V100 9999 TS FEW026CB SCT033 12/05 Q1012
Conditions at: LESA (SALAMANCA (CIV/M, ES) observed 1538 UTC 18 April 2019
Temperature: 12.0°C (54°F)
Dewpoint: 5.0°C (41°F) [RH = 62%]
Pressure (altimeter): 29.88 inches Hg (1012.0 mb)
Winds: from the ENE (70 degrees) at 15 MPH (13 knots; 6.7 m/s)
Visibility: 6 or more miles (10+ km)
Ceiling: at least 12,000 feet AGL
Clouds: few clouds at 2600 feet AGL
scattered clouds at 3300 feet AGL
Weather: TS  (thunderstorm)

METAR text: LESA 181530Z 07013KT 040V110 9999 FEW026 SCT033 12/05 Q1012
Conditions at: LESA (SALAMANCA (CIV/M, ES) observed 1530 UTC 18 April 2019
Temperature: 12.0°C (54°F)
Dewpoint: 5.0°C (41°F) [RH = 62%]
Pressure (altimeter): 29.88 inches Hg (1012.0 mb)
Winds: from the ENE (70 degrees) at 15 MPH (13 knots; 6.7 m/s)
Visibility: 6 or more miles (10+ km)
Ceiling: at least 12,000 feet AGL
Clouds: few clouds at 2600 feet AGL
scattered clouds at 3300 feet AGL
Weather: no significant weather observed at this time

METAR text: LESA 181500Z 09010KT 050V130 9999 FEW030 SCT040 13/06 Q1011
Conditions at: LESA (SALAMANCA (CIV/M, ES) observed 1500 UTC 18 April 2019
Temperature: 13.0°C (55°F)
Dewpoint: 6.0°C (43°F) [RH = 62%]
Pressure (altimeter): 29.85 inches Hg (1011.0 mb)
Winds: from the E (90 degrees) at 12 MPH (10 knots; 5.1 m/s)
Visibility: 6 or more miles (10+ km)
Ceiling: at least 12,000 feet AGL
Clouds: few clouds at 3000 feet AGL
scattered clouds at 4000 feet AGL
Weather: no significant weather observed at this time

METAR text: LESA 181430Z 09004KT 020V140 9999 FEW026 SCT036 14/04 Q1011
Conditions at: LESA (SALAMANCA (CIV/M, ES) observed 1430 UTC 18 April 2019
Temperature: 14.0°C (57°F)
Dewpoint: 4.0°C (39°F) [RH = 51%]
Pressure (altimeter): 29.85 inches Hg (1011.0 mb)
Winds: from the E (90 degrees) at 5 MPH (4 knots; 2.1 m/s)
Visibility: 6 or more miles (10+ km)
Ceiling: at least 12,000 feet AGL
Clouds: few clouds at 2600 feet AGL
scattered clouds at 3600 feet AGL
Weather: no significant weather observed at this time

METAR text: LESA 181400Z 07005KT 340V110 9999 FEW026 SCT036 BKN048 14/03 Q1012
Conditions at: LESA (SALAMANCA (CIV/M, ES) observed 1400 UTC 18 April 2019
Temperature: 14.0°C (57°F)
Dewpoint: 3.0°C (37°F) [RH = 47%]
Pressure (altimeter): 29.88 inches Hg (1012.0 mb)
Winds: from the ENE (70 degrees) at 6 MPH (5 knots; 2.6 m/s)
Visibility: 6 or more miles (10+ km)
Ceiling: 4800 feet AGL
Clouds: few clouds at 2600 feet AGL
scattered clouds at 3600 feet AGL
broken clouds at 4800 feet AGL
Weather: no significant weather observed at this time

METAR text: LESA 181330Z 09005KT 030V150 9999 FEW026 SCT036 BKN048 14/04 Q1012
Conditions at: LESA (SALAMANCA (CIV/M, ES) observed 1330 UTC 18 April 2019
Temperature: 14.0°C (57°F)
Dewpoint: 4.0°C (39°F) [RH = 51%]
Pressure (altimeter): 29.88 inches Hg (1012.0 mb)
Winds: from the E (90 degrees) at 6 MPH (5 knots; 2.6 m/s)
Visibility: 6 or more miles (10+ km)
Ceiling: 4800 feet AGL
Clouds: few clouds at 2600 feet AGL
scattered clouds at 3600 feet AGL
broken clouds at 4800 feet AGL
Weather: no significant weather observed at this time

METAR text: LESA 181300Z 09005KT 040V160 9999 FEW026 BKN034 14/04 Q1012
Conditions at: LESA (SALAMANCA (CIV/M, ES) observed 1300 UTC 18 April 2019
Temperature: 14.0°C (57°F)
Dewpoint: 4.0°C (39°F) [RH = 51%]
Pressure (altimeter): 29.88 inches Hg (1012.0 mb)
Winds: from the E (90 degrees) at 6 MPH (5 knots; 2.6 m/s)
Visibility: 6 or more miles (10+ km)
Ceiling: 3400 feet AGL
Clouds: few clouds at 2600 feet AGL
broken clouds at 3400 feet AGL
Weather: no significant weather observed at this time

METAR text: LESA 181230Z 06005KT 350V100 9999 FEW024 BKN032 13/04 Q1012
Conditions at: LESA (SALAMANCA (CIV/M, ES) observed 1230 UTC 18 April 2019
Temperature: 13.0°C (55°F)
Dewpoint: 4.0°C (39°F) [RH = 54%]
Pressure (altimeter): 29.88 inches Hg (1012.0 mb)
Winds: from the ENE (60 degrees) at 6 MPH (5 knots; 2.6 m/s)
Visibility: 6 or more miles (10+ km)
Ceiling: 3200 feet AGL
Clouds: few clouds at 2400 feet AGL
broken clouds at 3200 feet AGL
Weather: no significant weather observed at this time

METAR text: LESA 181200Z 06006KT 020V110 9999 FEW022 BKN030 13/05 Q1013
Conditions at: LESA (SALAMANCA (CIV/M, ES) observed 1200 UTC 18 April 2019
Temperature: 13.0°C (55°F)
Dewpoint: 5.0°C (41°F) [RH = 58%]
Pressure (altimeter): 29.91 inches Hg (1013.0 mb)
Winds: from the ENE (60 degrees) at 7 MPH (6 knots; 3.1 m/s)
Visibility: 6 or more miles (10+ km)
Ceiling: 3000 feet AGL
Clouds: few clouds at 2200 feet AGL
broken clouds at 3000 feet AGL
Weather: no significant weather observed at this time

METAR text: LESA 181130Z 08007KT 040V110 9999 FEW022 SCT028 12/04 Q1013
Conditions at: LESA (SALAMANCA (CIV/M, ES) observed 1130 UTC 18 April 2019
Temperature: 12.0°C (54°F)
Dewpoint: 4.0°C (39°F) [RH = 58%]
Pressure (altimeter): 29.91 inches Hg (1013.0 mb)
Winds: from the E (80 degrees) at 8 MPH (7 knots; 3.6 m/s)
Visibility: 6 or more miles (10+ km)
Ceiling: at least 12,000 feet AGL
Clouds: few clouds at 2200 feet AGL
scattered clouds at 2800 feet AGL
Weather: no significant weather observed at this time

METAR text: LESA 181100Z 04006KT 360V080 9999 FEW022 SCT026 BKN036 11/05 Q1013
Conditions at: LESA (SALAMANCA (CIV/M, ES) observed 1100 UTC 18 April 2019
Temperature: 11.0°C (52°F)
Dewpoint: 5.0°C (41°F) [RH = 66%]
Pressure (altimeter): 29.91 inches Hg (1013.0 mb)
Winds: from the NE (40 degrees) at 7 MPH (6 knots; 3.1 m/s)
Visibility: 6 or more miles (10+ km)
Ceiling: 3600 feet AGL
Clouds: few clouds at 2200 feet AGL
scattered clouds at 2600 feet AGL
broken clouds at 3600 feet AGL
Weather: no significant weather observed at this time

METAR text: LESA 181030Z VRB01KT 9999 FEW022 BKN036 12/06 Q1013
Conditions at: LESA (SALAMANCA (CIV/M, ES) observed 1030 UTC 18 April 2019
Temperature: 12.0°C (54°F)
Dewpoint: 6.0°C (43°F) [RH = 67%]
Pressure (altimeter): 29.91 inches Hg (1013.0 mb)
Winds: variable direction winds at 1 MPH (1 knots; 0.5 m/s)
Visibility: 6 or more miles (10+ km)
Ceiling: 3600 feet AGL
Clouds: few clouds at 2200 feet AGL
broken clouds at 3600 feet AGL
Weather: no significant weather observed at this time

METAR text: LESA 181000Z 06003KT 010V120 9999 FEW022 BKN036 11/05 Q1013
Conditions at: LESA (SALAMANCA (CIV/M, ES) observed 1000 UTC 18 April 2019
Temperature: 11.0°C (52°F)
Dewpoint: 5.0°C (41°F) [RH = 66%]
Pressure (altimeter): 29.91 inches Hg (1013.0 mb)
Winds: from the ENE (60 degrees) at 3 MPH (3 knots; 1.5 m/s)
Visibility: 6 or more miles (10+ km)
Ceiling: 3600 feet AGL
Clouds: few clouds at 2200 feet AGL
broken clouds at 3600 feet AGL
Weather: no significant weather observed at this time

METAR text: LESA 180930Z VRB02KT 9999 FEW020 11/06 Q1013
Conditions at: LESA (SALAMANCA (CIV/M, ES) observed 0930 UTC 18 April 2019
Temperature: 11.0°C (52°F)
Dewpoint: 6.0°C (43°F) [RH = 71%]
Pressure (altimeter): 29.91 inches Hg (1013.0 mb)
Winds: variable direction winds at 2 MPH (2 knots; 1.0 m/s)
Visibility: 6 or more miles (10+ km)
Ceiling: at least 12,000 feet AGL
Clouds: few clouds at 2000 feet AGL
Weather: no significant weather observed at this time

METAR text: LESA 180900Z VRB01KT 9999 FEW022 11/07 Q1013
Conditions at: LESA (SALAMANCA (CIV/M, ES) observed 0900 UTC 18 April 2019
Temperature: 11.0°C (52°F)
Dewpoint: 7.0°C (45°F) [RH = 76%]
Pressure (altimeter): 29.91 inches Hg (1013.0 mb)
Winds: variable direction winds at 1 MPH (1 knots; 0.5 m/s)
Visibility: 6 or more miles (10+ km)
Ceiling: at least 12,000 feet AGL
Clouds: few clouds at 2200 feet AGL
Weather: no significant weather observed at this time

METAR text: LESA 180830Z VRB02KT 9999 FEW024 09/06 Q1013
Conditions at: LESA (SALAMANCA (CIV/M, ES) observed 0830 UTC 18 April 2019
Temperature: 9.0°C (48°F)
Dewpoint: 6.0°C (43°F) [RH = 81%]
Pressure (altimeter): 29.91 inches Hg (1013.0 mb)
Winds: variable direction winds at 2 MPH (2 knots; 1.0 m/s)
Visibility: 6 or more miles (10+ km)
Ceiling: at least 12,000 feet AGL
Clouds: few clouds at 2400 feet AGL
Weather: no significant weather observed at this time

METAR text: LESA 180800Z VRB02KT 9999 FEW026 09/07 Q1013
Conditions at: LESA (SALAMANCA (CIV/M, ES) observed 0800 UTC 18 April 2019
Temperature: 9.0°C (48°F)
Dewpoint: 7.0°C (45°F) [RH = 87%]
Pressure (altimeter): 29.91 inches Hg (1013.0 mb)
Winds: variable direction winds at 2 MPH (2 knots; 1.0 m/s)
Visibility: 6 or more miles (10+ km)
Ceiling: at least 12,000 feet AGL
Clouds: few clouds at 2600 feet AGL
Weather: no significant weather observed at this time

METAR text: LESA 180730Z VRB02KT 9999 FEW024 08/06 Q1013
Conditions at: LESA (SALAMANCA (CIV/M, ES) observed 0730 UTC 18 April 2019
Temperature: 8.0°C (46°F)
Dewpoint: 6.0°C (43°F) [RH = 87%]
Pressure (altimeter): 29.91 inches Hg (1013.0 mb)
Winds: variable direction winds at 2 MPH (2 knots; 1.0 m/s)
Visibility: 6 or more miles (10+ km)
Ceiling: at least 12,000 feet AGL
Clouds: few clouds at 2400 feet AGL
Weather: no significant weather observed at this time

METAR text: LESA 180700Z VRB01KT 9999 FEW024 08/06 Q1013
Conditions at: LESA (SALAMANCA (CIV/M, ES) observed 0700 UTC 18 April 2019
Temperature: 8.0°C (46°F)
Dewpoint: 6.0°C (43°F) [RH = 87%]
Pressure (altimeter): 29.91 inches Hg (1013.0 mb)
Winds: variable direction winds at 1 MPH (1 knots; 0.5 m/s)
Visibility: 6 or more miles (10+ km)
Ceiling: at least 12,000 feet AGL
Clouds: few clouds at 2400 feet AGL
Weather: no significant weather observed at this time

METAR text: LESA 180630Z 16001KT 9999 FEW022 SCT048 07/05 Q1013
Conditions at: LESA (SALAMANCA (CIV/M, ES) observed 0630 UTC 18 April 2019
Temperature: 7.0°C (45°F)
Dewpoint: 5.0°C (41°F) [RH = 87%]
Pressure (altimeter): 29.91 inches Hg (1013.0 mb)
Winds: from the SSE (160 degrees) at 1 MPH (1 knots; 0.5 m/s)
Visibility: 6 or more miles (10+ km)
Ceiling: at least 12,000 feet AGL
Clouds: few clouds at 2200 feet AGL
scattered clouds at 4800 feet AGL
Weather: no significant weather observed at this time

METAR text: LESA 180600Z VRB01KT 9999 FEW022 05/04 Q1013
Conditions at: LESA (SALAMANCA (CIV/M, ES) observed 0600 UTC 18 April 2019
Temperature: 5.0°C (41°F)
Dewpoint: 4.0°C (39°F) [RH = 93%]
Pressure (altimeter): 29.91 inches Hg (1013.0 mb)
Winds: variable direction winds at 1 MPH (1 knots; 0.5 m/s)
Visibility: 6 or more miles (10+ km)
Ceiling: at least 12,000 feet AGL
Clouds: few clouds at 2200 feet AGL
Weather: no significant weather observed at this time

METAR text: LESA 180530Z AUTO VRB01KT 7000 NSC 06/05 Q1012
Conditions at: LESA (SALAMANCA (CIV/M, ES) observed 0530 UTC 18 April 2019
Temperature: 6.0°C (43°F)
Dewpoint: 5.0°C (41°F) [RH = 93%]
Pressure (altimeter): 29.88 inches Hg (1012.0 mb)
Winds: variable direction winds at 1 MPH (1 knots; 0.5 m/s)
Visibility: 4 miles ( 7 km)
Ceiling: at least 12,000 feet AGL
Clouds: sky clear below 12,000 feet AGL
Weather: no significant weather observed at this time

METAR text: LESA 180500Z AUTO 00000KT 7000 NSC 07/05 Q1012
Conditions at: LESA (SALAMANCA (CIV/M, ES) observed 0500 UTC 18 April 2019
Temperature: 7.0°C (45°F)
Dewpoint: 5.0°C (41°F) [RH = 87%]
Pressure (altimeter): 29.88 inches Hg (1012.0 mb)
Winds: calm
Visibility: 4 miles ( 7 km)
Ceiling: at least 12,000 feet AGL
Clouds: sky clear below 12,000 feet AGL
Weather: no significant weather observed at this time

METAR text: LESA 180430Z AUTO 19004KT 7000 FEW042 06/05 Q1012
Conditions at: LESA (SALAMANCA (CIV/M, ES) observed 0430 UTC 18 April 2019
Temperature: 6.0°C (43°F)
Dewpoint: 5.0°C (41°F) [RH = 93%]
Pressure (altimeter): 29.88 inches Hg (1012.0 mb)
Winds: from the S (190 degrees) at 5 MPH (4 knots; 2.1 m/s)
Visibility: 4 miles ( 7 km)
Ceiling: at least 12,000 feet AGL
Clouds: few clouds at 4200 feet AGL
Weather: no significant weather observed at this time

METAR text: LESA 180400Z AUTO 22005KT 7000 BKN041 07/06 Q1012
Conditions at: LESA (SALAMANCA (CIV/M, ES) observed 0400 UTC 18 April 2019
Temperature: 7.0°C (45°F)
Dewpoint: 6.0°C (43°F) [RH = 93%]
Pressure (altimeter): 29.88 inches Hg (1012.0 mb)
Winds: from the SW (220 degrees) at 6 MPH (5 knots; 2.6 m/s)
Visibility: 4 miles ( 7 km)
Ceiling: 4100 feet AGL
Clouds: broken clouds at 4100 feet AGL
Weather: no significant weather observed at this time

METAR text: LESA 180330Z AUTO VRB01KT 7000 SCT041 07/05 Q1012
Conditions at: LESA (SALAMANCA (CIV/M, ES) observed 0330 UTC 18 April 2019
Temperature: 7.0°C (45°F)
Dewpoint: 5.0°C (41°F) [RH = 87%]
Pressure (altimeter): 29.88 inches Hg (1012.0 mb)
Winds: variable direction winds at 1 MPH (1 knots; 0.5 m/s)
Visibility: 4 miles ( 7 km)
Ceiling: at least 12,000 feet AGL
Clouds: scattered clouds at 4100 feet AGL
Weather: no significant weather observed at this time

METAR text: LESA 180300Z AUTO 19004KT 160V230 7000 BKN042 08/06 Q1012
Conditions at: LESA (SALAMANCA (CIV/M, ES) observed 0300 UTC 18 April 2019
Temperature: 8.0°C (46°F)
Dewpoint: 6.0°C (43°F) [RH = 87%]
Pressure (altimeter): 29.88 inches Hg (1012.0 mb)
Winds: from the S (190 degrees) at 5 MPH (4 knots; 2.1 m/s)
Visibility: 4 miles ( 7 km)
Ceiling: 4200 feet AGL
Clouds: broken clouds at 4200 feet AGL
Weather: no significant weather observed at this time

METAR text: LESA 180230Z AUTO 21003KT 190V270 7000 BKN042 08/06 Q1012
Conditions at: LESA (SALAMANCA (CIV/M, ES) observed 0230 UTC 18 April 2019
Temperature: 8.0°C (46°F)
Dewpoint: 6.0°C (43°F) [RH = 87%]
Pressure (altimeter): 29.88 inches Hg (1012.0 mb)
Winds: from the SSW (210 degrees) at 3 MPH (3 knots; 1.5 m/s)
Visibility: 4 miles ( 7 km)
Ceiling: 4200 feet AGL
Clouds: broken clouds at 4200 feet AGL
Weather: no significant weather observed at this time

METAR text: LESA 180200Z AUTO 20003KT 7000 FEW017 OVC042 08/06 Q1012
Conditions at: LESA (SALAMANCA (CIV/M, ES) observed 0200 UTC 18 April 2019
Temperature: 8.0°C (46°F)
Dewpoint: 6.0°C (43°F) [RH = 87%]
Pressure (altimeter): 29.88 inches Hg (1012.0 mb)
Winds: from the SSW (200 degrees) at 3 MPH (3 knots; 1.5 m/s)
Visibility: 4 miles ( 7 km)
Ceiling: 4200 feet AGL
Clouds: few clouds at 1700 feet AGL
overcast cloud deck at 4200 feet AGL
Weather: no significant weather observed at this time

METAR text: LESA 180130Z AUTO 22005KT 200V280 7000 OVC046 08/06 Q1012
Conditions at: LESA (SALAMANCA (CIV/M, ES) observed 0130 UTC 18 April 2019
Temperature: 8.0°C (46°F)
Dewpoint: 6.0°C (43°F) [RH = 87%]
Pressure (altimeter): 29.88 inches Hg (1012.0 mb)
Winds: from the SW (220 degrees) at 6 MPH (5 knots; 2.6 m/s)
Visibility: 4 miles ( 7 km)
Ceiling: 4600 feet AGL
Clouds: overcast cloud deck at 4600 feet AGL
Weather: no significant weather observed at this time

METAR text: LESA 180100Z AUTO 24008KT 210V280 7000 FEW017 08/06 Q1012
Conditions at: LESA (SALAMANCA (CIV/M, ES) observed 0100 UTC 18 April 2019
Temperature: 8.0°C (46°F)
Dewpoint: 6.0°C (43°F) [RH = 87%]
Pressure (altimeter): 29.88 inches Hg (1012.0 mb)
Winds: from the WSW (240 degrees) at 9 MPH (8 knots; 4.1 m/s)
Visibility: 4 miles ( 7 km)
Ceiling: at least 12,000 feet AGL
Clouds: few clouds at 1700 feet AGL
Weather: no significant weather observed at this time

METAR text: LESA 180030Z AUTO 23013KT 7000 BKN044 09/06 Q1012
Conditions at: LESA (SALAMANCA (CIV/M, ES) observed 0030 UTC 18 April 2019
Temperature: 9.0°C (48°F)
Dewpoint: 6.0°C (43°F) [RH = 81%]
Pressure (altimeter): 29.88 inches Hg (1012.0 mb)
Winds: from the SW (230 degrees) at 15 MPH (13 knots; 6.7 m/s)
Visibility: 4 miles ( 7 km)
Ceiling: 4400 feet AGL
Clouds: broken clouds at 4400 feet AGL
Weather: no significant weather observed at this time

METAR text: LESA 180000Z AUTO 22010KT 7000 FEW018 BKN038 09/07 Q1012
Conditions at: LESA (SALAMANCA (CIV/M, ES) observed 0000 UTC 18 April 2019
Temperature: 9.0°C (48°F)
Dewpoint: 7.0°C (45°F) [RH = 87%]
Pressure (altimeter): 29.88 inches Hg (1012.0 mb)
Winds: from the SW (220 degrees) at 12 MPH (10 knots; 5.1 m/s)
Visibility: 4 miles ( 7 km)
Ceiling: 3800 feet AGL
Clouds: few clouds at 1800 feet AGL
broken clouds at 3800 feet AGL
Weather: no significant weather observed at this time

METAR text: LESA 172330Z AUTO 21006KT 7000 FEW036 09/07 Q1012
Conditions at: LESA (SALAMANCA (CIV/M, ES) observed 2330 UTC 17 April 2019
Temperature: 9.0°C (48°F)
Dewpoint: 7.0°C (45°F) [RH = 87%]
Pressure (altimeter): 29.88 inches Hg (1012.0 mb)
Winds: from the SSW (210 degrees) at 7 MPH (6 knots; 3.1 m/s)
Visibility: 4 miles ( 7 km)
Ceiling: at least 12,000 feet AGL
Clouds: few clouds at 3600 feet AGL
Weather: no significant weather observed at this time

METAR text: LESA 172300Z AUTO 23006KT 7000 SCT034 09/07 Q1012
Conditions at: LESA (SALAMANCA (CIV/M, ES) observed 2300 UTC 17 April 2019
Temperature: 9.0°C (48°F)
Dewpoint: 7.0°C (45°F) [RH = 87%]
Pressure (altimeter): 29.88 inches Hg (1012.0 mb)
Winds: from the SW (230 degrees) at 7 MPH (6 knots; 3.1 m/s)
Visibility: 4 miles ( 7 km)
Ceiling: at least 12,000 feet AGL
Clouds: scattered clouds at 3400 feet AGL
Weather: no significant weather observed at this time

METAR text: LESA 172230Z AUTO 22007KT 7000 NSC 09/07 Q1012
Conditions at: LESA (SALAMANCA (CIV/M, ES) observed 2230 UTC 17 April 2019
Temperature: 9.0°C (48°F)
Dewpoint: 7.0°C (45°F) [RH = 87%]
Pressure (altimeter): 29.88 inches Hg (1012.0 mb)
Winds: from the SW (220 degrees) at 8 MPH (7 knots; 3.6 m/s)
Visibility: 4 miles ( 7 km)
Ceiling: at least 12,000 feet AGL
Clouds: sky clear below 12,000 feet AGL
Weather: no significant weather observed at this time

METAR text: LESA 172200Z AUTO 22009KT 6000 NSC 09/07 Q1011
Conditions at: LESA (SALAMANCA (CIV/M, ES) observed 2200 UTC 17 April 2019
Temperature: 9.0°C (48°F)
Dewpoint: 7.0°C (45°F) [RH = 87%]
Pressure (altimeter): 29.85 inches Hg (1011.0 mb)
Winds: from the SW (220 degrees) at 10 MPH (9 knots; 4.6 m/s)
Visibility: 4 miles ( 6 km)
Ceiling: at least 12,000 feet AGL
Clouds: sky clear below 12,000 feet AGL
Weather: no significant weather observed at this time

METAR text: LESA 172130Z AUTO 23010KT 7000 FEW043 09/07 Q1011
Conditions at: LESA (SALAMANCA (CIV/M, ES) observed 2130 UTC 17 April 2019
Temperature: 9.0°C (48°F)
Dewpoint: 7.0°C (45°F) [RH = 87%]
Pressure (altimeter): 29.85 inches Hg (1011.0 mb)
Winds: from the SW (230 degrees) at 12 MPH (10 knots; 5.1 m/s)
Visibility: 4 miles ( 7 km)
Ceiling: at least 12,000 feet AGL
Clouds: few clouds at 4300 feet AGL
Weather: no significant weather observed at this time

METAR text: LESA 172100Z AUTO 24010KT 6000 -RA BKN035 BKN041 OVC048 09/07 Q1011
Conditions at: LESA (SALAMANCA (CIV/M, ES) observed 2100 UTC 17 April 2019
Temperature: 9.0°C (48°F)
Dewpoint: 7.0°C (45°F) [RH = 87%]
Pressure (altimeter): 29.85 inches Hg (1011.0 mb)
Winds: from the WSW (240 degrees) at 12 MPH (10 knots; 5.1 m/s)
Visibility: 4 miles ( 6 km)
Ceiling: 3500 feet AGL
Clouds: broken clouds at 3500 feet AGL
broken clouds at 4100 feet AGL
overcast cloud deck at 4800 feet AGL
Weather: -RA  (light rain)

METAR text: LESA 172030Z AUTO 25010KT 6000 -RA SCT034 BKN043 BKN049 09/07 Q1010
Conditions at: LESA (SALAMANCA (CIV/M, ES) observed 2030 UTC 17 April 2019
Temperature: 9.0°C (48°F)
Dewpoint: 7.0°C (45°F) [RH = 87%]
Pressure (altimeter): 29.82 inches Hg (1010.0 mb)
Winds: from the WSW (250 degrees) at 12 MPH (10 knots; 5.1 m/s)
Visibility: 4 miles ( 6 km)
Ceiling: 4300 feet AGL
Clouds: scattered clouds at 3400 feet AGL
broken clouds at 4300 feet AGL
broken clouds at 4900 feet AGL
Weather: -RA  (light rain)

METAR text: LESA 172000Z AUTO 25014KT 5000 -RA BR FEW030 SCT049 10/08 Q1010
Conditions at: LESA (SALAMANCA (CIV/M, ES) observed 2000 UTC 17 April 2019
Temperature: 10.0°C (50°F)
Dewpoint: 8.0°C (46°F) [RH = 87%]
Pressure (altimeter): 29.82 inches Hg (1010.0 mb)
Winds: from the WSW (250 degrees) at 16 MPH (14 knots; 7.2 m/s)
Visibility: 3 miles ( 5 km)
Ceiling: at least 12,000 feet AGL
Clouds: few clouds at 3000 feet AGL
scattered clouds at 4900 feet AGL
Weather: -RA BR  (light rain, mist)

METAR text: LESA 171930Z AUTO 25017KT 6000 FEW027 SCT048 11/08 Q1010
Conditions at: LESA (SALAMANCA (CIV/M, ES) observed 1930 UTC 17 April 2019
Temperature: 11.0°C (52°F)
Dewpoint: 8.0°C (46°F) [RH = 82%]
Pressure (altimeter): 29.82 inches Hg (1010.0 mb)
Winds: from the WSW (250 degrees) at 20 MPH (17 knots; 8.7 m/s)
Visibility: 4 miles ( 6 km)
Ceiling: at least 12,000 feet AGL
Clouds: few clouds at 2700 feet AGL
scattered clouds at 4800 feet AGL
Weather: no significant weather observed at this time

METAR text: LESA 171900Z AUTO 25017KT 7000 NSC 12/08 Q1009
Conditions at: LESA (SALAMANCA (CIV/M, ES) observed 1900 UTC 17 April 2019
Temperature: 12.0°C (54°F)
Dewpoint: 8.0°C (46°F) [RH = 76%]
Pressure (altimeter): 29.79 inches Hg (1009.0 mb)
Winds: from the WSW (250 degrees) at 20 MPH (17 knots; 8.7 m/s)
Visibility: 4 miles ( 7 km)
Ceiling: at least 12,000 feet AGL
Clouds: sky clear below 12,000 feet AGL
Weather: no significant weather observed at this time

METAR text: LESA 171830Z AUTO 24020KT 7000 NCD 15/07 Q1008
Conditions at: LESA (SALAMANCA (CIV/M, ES) observed 1830 UTC 17 April 2019
Temperature: 15.0°C (59°F)
Dewpoint: 7.0°C (45°F) [RH = 59%]
Pressure (altimeter): 29.76 inches Hg (1008.0 mb)
Winds: from the WSW (240 degrees) at 23 MPH (20 knots; 10.3 m/s)
Visibility: 4 miles ( 7 km)
Ceiling: at least 12,000 feet AGL
Clouds: sky clear below 12,000 feet AGL
Weather: no significant weather observed at this time

METAR text: LESA 171800Z 20016KT 170V230 CAVOK 17/05 Q1008
Conditions at: LESA (SALAMANCA (CIV/M, ES) observed 1800 UTC 17 April 2019
Temperature: 17.0°C (63°F)
Dewpoint: 5.0°C (41°F) [RH = 45%]
Pressure (altimeter): 29.76 inches Hg (1008.0 mb)
Winds: from the SSW (200 degrees) at 18 MPH (16 knots; 8.2 m/s)
Visibility: 6 or more miles (10+ km)
Ceiling: ceiling and visibility are OK
Clouds: unknown
Weather: no significant weather observed at this time

METAR text: LESA 171730Z 20015KT 160V220 CAVOK 17/05 Q1008
Conditions at: LESA (SALAMANCA (CIV/M, ES) observed 1730 UTC 17 April 2019
Temperature: 17.0°C (63°F)
Dewpoint: 5.0°C (41°F) [RH = 45%]
Pressure (altimeter): 29.76 inches Hg (1008.0 mb)
Winds: from the SSW (200 degrees) at 17 MPH (15 knots; 7.7 m/s)
Visibility: 6 or more miles (10+ km)
Ceiling: ceiling and visibility are OK
Clouds: unknown
Weather: no significant weather observed at this time

METAR text: LESA 171700Z 20019KT CAVOK 18/05 Q1008
Conditions at: LESA (SALAMANCA (CIV/M, ES) observed 1700 UTC 17 April 2019
Temperature: 18.0°C (64°F)
Dewpoint: 5.0°C (41°F) [RH = 42%]
Pressure (altimeter): 29.76 inches Hg (1008.0 mb)
Winds: from the SSW (200 degrees) at 22 MPH (19 knots; 9.8 m/s)
Visibility: 6 or more miles (10+ km)
Ceiling: ceiling and visibility are OK
Clouds: unknown
Weather: no significant weather observed at this time

METAR text: LESA 171630Z 19022KT CAVOK 18/04 Q1008
Conditions at: LESA (SALAMANCA (CIV/M, ES) observed 1630 UTC 17 April 2019
Temperature: 18.0°C (64°F)
Dewpoint: 4.0°C (39°F) [RH = 39%]
Pressure (altimeter): 29.76 inches Hg (1008.0 mb)
Winds: from the S (190 degrees) at 25 MPH (22 knots; 11.3 m/s)
Visibility: 6 or more miles (10+ km)
Ceiling: ceiling and visibility are OK
Clouds: unknown
Weather: no significant weather observed at this time

METAR text: LESA 171600Z 20014KT CAVOK 19/04 Q1008
Conditions at: LESA (SALAMANCA (CIV/M, ES) observed 1600 UTC 17 April 2019
Temperature: 19.0°C (66°F)
Dewpoint: 4.0°C (39°F) [RH = 37%]
Pressure (altimeter): 29.76 inches Hg (1008.0 mb)
Winds: from the SSW (200 degrees) at 16 MPH (14 knots; 7.2 m/s)
Visibility: 6 or more miles (10+ km)
Ceiling: ceiling and visibility are OK
Clouds: unknown
Weather: no significant weather observed at this time

METAR text: LESA 171530Z 22015KT 190V250 CAVOK 19/04 Q1008
Conditions at: LESA (SALAMANCA (CIV/M, ES) observed 1530 UTC 17 April 2019
Temperature: 19.0°C (66°F)
Dewpoint: 4.0°C (39°F) [RH = 37%]
Pressure (altimeter): 29.76 inches Hg (1008.0 mb)
Winds: from the SW (220 degrees) at 17 MPH (15 knots; 7.7 m/s)
Visibility: 6 or more miles (10+ km)
Ceiling: ceiling and visibility are OK
Clouds: unknown
Weather: no significant weather observed at this time

METAR text: LESA 171500Z 22017KT 200V260 CAVOK 20/04 Q1008
Conditions at: LESA (SALAMANCA (CIV/M, ES) observed 1500 UTC 17 April 2019
Temperature: 20.0°C (68°F)
Dewpoint: 4.0°C (39°F) [RH = 35%]
Pressure (altimeter): 29.76 inches Hg (1008.0 mb)
Winds: from the SW (220 degrees) at 20 MPH (17 knots; 8.7 m/s)
Visibility: 6 or more miles (10+ km)
Ceiling: ceiling and visibility are OK
Clouds: unknown
Weather: no significant weather observed at this time

METAR text: LESA 171430Z 21015KT 170V240 CAVOK 21/04 Q1008
Conditions at: LESA (SALAMANCA (CIV/M, ES) observed 1430 UTC 17 April 2019
Temperature: 21.0°C (70°F)
Dewpoint: 4.0°C (39°F) [RH = 33%]
Pressure (altimeter): 29.76 inches Hg (1008.0 mb)
Winds: from the SSW (210 degrees) at 17 MPH (15 knots; 7.7 m/s)
Visibility: 6 or more miles (10+ km)
Ceiling: ceiling and visibility are OK
Clouds: unknown
Weather: no significant weather observed at this time

METAR text: LESA 171400Z 21013KT 170V240 CAVOK 21/03 Q1008
Conditions at: LESA (SALAMANCA (CIV/M, ES) observed 1400 UTC 17 April 2019
Temperature: 21.0°C (70°F)
Dewpoint: 3.0°C (37°F) [RH = 30%]
Pressure (altimeter): 29.76 inches Hg (1008.0 mb)
Winds: from the SSW (210 degrees) at 15 MPH (13 knots; 6.7 m/s)
Visibility: 6 or more miles (10+ km)
Ceiling: ceiling and visibility are OK
Clouds: unknown
Weather: no significant weather observed at this time

METAR text: LESA 171330Z 22007KT 170V300 CAVOK 20/02 Q1008
Conditions at: LESA (SALAMANCA (CIV/M, ES) observed 1330 UTC 17 April 2019
Temperature: 20.0°C (68°F)
Dewpoint: 2.0°C (36°F) [RH = 30%]
Pressure (altimeter): 29.76 inches Hg (1008.0 mb)
Winds: from the SW (220 degrees) at 8 MPH (7 knots; 3.6 m/s)
Visibility: 6 or more miles (10+ km)
Ceiling: ceiling and visibility are OK
Clouds: unknown
Weather: no significant weather observed at this time

METAR text: LESA 171300Z 17009KT 100V230 CAVOK 19/02 Q1008
Conditions at: LESA (SALAMANCA (CIV/M, ES) observed 1300 UTC 17 April 2019
Temperature: 19.0°C (66°F)
Dewpoint: 2.0°C (36°F) [RH = 32%]
Pressure (altimeter): 29.76 inches Hg (1008.0 mb)
Winds: from the S (170 degrees) at 10 MPH (9 knots; 4.6 m/s)
Visibility: 6 or more miles (10+ km)
Ceiling: ceiling and visibility are OK
Clouds: unknown
Weather: no significant weather observed at this time

METAR text: LESA 171230Z 18012KT 140V220 CAVOK 20/01 Q1009
Conditions at: LESA (SALAMANCA (CIV/M, ES) observed 1230 UTC 17 April 2019
Temperature: 20.0°C (68°F)
Dewpoint: 1.0°C (34°F) [RH = 28%]
Pressure (altimeter): 29.79 inches Hg (1009.0 mb)
Winds: from the S (180 degrees) at 14 MPH (12 knots; 6.2 m/s)
Visibility: 6 or more miles (10+ km)
Ceiling: ceiling and visibility are OK
Clouds: unknown
Weather: no significant weather observed at this time

METAR text: LESA 171200Z 19014KT 170V230 9999 FEW040 19/02 Q1009
Conditions at: LESA (SALAMANCA (CIV/M, ES) observed 1200 UTC 17 April 2019
Temperature: 19.0°C (66°F)
Dewpoint: 2.0°C (36°F) [RH = 32%]
Pressure (altimeter): 29.79 inches Hg (1009.0 mb)
Winds: from the S (190 degrees) at 16 MPH (14 knots; 7.2 m/s)
Visibility: 6 or more miles (10+ km)
Ceiling: at least 12,000 feet AGL
Clouds: few clouds at 4000 feet AGL
Weather: no significant weather observed at this time

METAR text: LESA 171130Z 25006KT 190V290 9999 FEW040 18/05 Q1010
Conditions at: LESA (SALAMANCA (CIV/M, ES) observed 1130 UTC 17 April 2019
Temperature: 18.0°C (64°F)
Dewpoint: 5.0°C (41°F) [RH = 42%]
Pressure (altimeter): 29.82 inches Hg (1010.0 mb)
Winds: from the WSW (250 degrees) at 7 MPH (6 knots; 3.1 m/s)
Visibility: 6 or more miles (10+ km)
Ceiling: at least 12,000 feet AGL
Clouds: few clouds at 4000 feet AGL
Weather: no significant weather observed at this time

METAR text: LESA 171100Z 21010KT 170V260 9999 FEW040 19/04 Q1010
Conditions at: LESA (SALAMANCA (CIV/M, ES) observed 1100 UTC 17 April 2019
Temperature: 19.0°C (66°F)
Dewpoint: 4.0°C (39°F) [RH = 37%]
Pressure (altimeter): 29.82 inches Hg (1010.0 mb)
Winds: from the SSW (210 degrees) at 12 MPH (10 knots; 5.1 m/s)
Visibility: 6 or more miles (10+ km)
Ceiling: at least 12,000 feet AGL
Clouds: few clouds at 4000 feet AGL
Weather: no significant weather observed at this time

METAR text: LESA 171030Z 21010KT 170V260 9999 FEW040 18/04 Q1010
Conditions at: LESA (SALAMANCA (CIV/M, ES) observed 1030 UTC 17 April 2019
Temperature: 18.0°C (64°F)
Dewpoint: 4.0°C (39°F) [RH = 39%]
Pressure (altimeter): 29.82 inches Hg (1010.0 mb)
Winds: from the SSW (210 degrees) at 12 MPH (10 knots; 5.1 m/s)
Visibility: 6 or more miles (10+ km)
Ceiling: at least 12,000 feet AGL
Clouds: few clouds at 4000 feet AGL
Weather: no significant weather observed at this time

METAR text: LESA 171000Z 20010KT 150V260 9999 FEW040 18/04 Q1010
Conditions at: LESA (SALAMANCA (CIV/M, ES) observed 1000 UTC 17 April 2019
Temperature: 18.0°C (64°F)
Dewpoint: 4.0°C (39°F) [RH = 39%]
Pressure (altimeter): 29.82 inches Hg (1010.0 mb)
Winds: from the SSW (200 degrees) at 12 MPH (10 knots; 5.1 m/s)
Visibility: 6 or more miles (10+ km)
Ceiling: at least 12,000 feet AGL
Clouds: few clouds at 4000 feet AGL
Weather: no significant weather observed at this time

METAR text: LESA 170930Z 25006KT 200V350 9999 FEW040 17/06 Q1010
Conditions at: LESA (SALAMANCA (CIV/M, ES) observed 0930 UTC 17 April 2019
Temperature: 17.0°C (63°F)
Dewpoint: 6.0°C (43°F) [RH = 48%]
Pressure (altimeter): 29.82 inches Hg (1010.0 mb)
Winds: from the WSW (250 degrees) at 7 MPH (6 knots; 3.1 m/s)
Visibility: 6 or more miles (10+ km)
Ceiling: at least 12,000 feet AGL
Clouds: few clouds at 4000 feet AGL
Weather: no significant weather observed at this time

METAR text: LESA 170900Z 29005KT 250V330 9999 FEW040 16/07 Q1010
Conditions at: LESA (SALAMANCA (CIV/M, ES) observed 0900 UTC 17 April 2019
Temperature: 16.0°C (61°F)
Dewpoint: 7.0°C (45°F) [RH = 55%]
Pressure (altimeter): 29.82 inches Hg (1010.0 mb)
Winds: from the WNW (290 degrees) at 6 MPH (5 knots; 2.6 m/s)
Visibility: 6 or more miles (10+ km)
Ceiling: at least 12,000 feet AGL
Clouds: few clouds at 4000 feet AGL
Weather: no significant weather observed at this time

METAR text: LESA 170830Z 32004KT 290V350 CAVOK 14/06 Q1010
Conditions at: LESA (SALAMANCA (CIV/M, ES) observed 0830 UTC 17 April 2019
Temperature: 14.0°C (57°F)
Dewpoint: 6.0°C (43°F) [RH = 58%]
Pressure (altimeter): 29.82 inches Hg (1010.0 mb)
Winds: from the NW (320 degrees) at 5 MPH (4 knots; 2.1 m/s)
Visibility: 6 or more miles (10+ km)
Ceiling: ceiling and visibility are OK
Clouds: unknown
Weather: no significant weather observed at this time

METAR text: LESA 170800Z 31004KT 280V340 CAVOK 11/06 Q1010
Conditions at: LESA (SALAMANCA (CIV/M, ES) observed 0800 UTC 17 April 2019
Temperature: 11.0°C (52°F)
Dewpoint: 6.0°C (43°F) [RH = 71%]
Pressure (altimeter): 29.82 inches Hg (1010.0 mb)
Winds: from the NW (310 degrees) at 5 MPH (4 knots; 2.1 m/s)
Visibility: 6 or more miles (10+ km)
Ceiling: ceiling and visibility are OK
Clouds: unknown
Weather: no significant weather observed at this time

METAR text: LESA 170730Z VRB01KT CAVOK 09/05 Q1010
Conditions at: LESA (SALAMANCA (CIV/M, ES) observed 0730 UTC 17 April 2019
Temperature: 9.0°C (48°F)
Dewpoint: 5.0°C (41°F) [RH = 76%]
Pressure (altimeter): 29.82 inches Hg (1010.0 mb)
Winds: variable direction winds at 1 MPH (1 knots; 0.5 m/s)
Visibility: 6 or more miles (10+ km)
Ceiling: ceiling and visibility are OK
Clouds: unknown
Weather: no significant weather observed at this time

Forecast for: LESA (SALAMANCA (CIV/M, ES)
Text: TAF LESA 181700Z 1818/1918 VRB05KT 9999 SCT020 BKN028 TX16/1914Z TN06/1906Z
Forecast period: 1800 UTC 18 April 2019 to 0800 UTC 19 April 2019
Forecast type: FROM: standard forecast or significant change
Winds: variable direction winds at 6 MPH (5 knots; 2.6 m/s)
Visibility: 6 or more miles 10+ km)
Ceiling: 2800 feet AGL
Clouds: scattered clouds at 2000 feet AGL
broken clouds at 2800 feet AGL
Weather: no significant weather forecast for this period
Text: PROB40
Forecast period: 1800 to 2000 UTC 18 April 2019
Forecast type: TEMPORARY: The following changes expected for less than half the time period
Visibility: missing
Ceiling: at least 12,000 feet AGL
Clouds: few clouds at 2000 feet AGL
Weather: no significant weather forecast for this period
Text: TEMPO 1818/1820 FEW020CB
Forecast period: 1800 UTC 18 April 2019 to 0700 UTC 19 April 2019
Forecast type: TEMPORARY: The following changes expected for less than half the time period
Visibility: missing
Ceiling: 1100 feet AGL
Clouds: broken clouds at 1100 feet AGL
Weather: RA  (moderate rain)
Text: PROB30
Forecast period: 0800 to 1800 UTC 19 April 2019
Forecast type: BECOMING: Conditions expected to become as follows by 1000 UTC 19 April 2019
Winds: from the ENE (70 degrees) at 17 MPH (15 knots; 7.7 m/s)
gusting to 29 MPH (25 knots; 12.9 m/s)
Visibility: 6 or more miles 10+ km)
Ceiling: 2800 feet AGL
Clouds: scattered clouds at 2000 feet AGL
broken clouds at 2800 feet AGL
Weather: no significant weather forecast for this period